createdAt,value
2023-03-17T00:39:00.722Z,1054.00
2023-03-17T00:43:00.692Z,1056.00
2023-03-17T00:47:00.775Z,1065.00
2023-03-17T00:51:00.697Z,1040.00
2023-03-17T00:55:00.678Z,1042.00
2023-03-17T00:59:00.727Z,1049.00
2023-03-17T01:03:00.679Z,1044.00
2023-03-17T01:07:00.638Z,1043.00
2023-03-17T01:11:00.681Z,1048.00
2023-03-17T01:15:00.705Z,1048.00
2023-03-17T01:19:00.780Z,1053.00
2023-03-17T01:23:00.712Z,1043.00
2023-03-17T01:27:00.682Z,1042.00
2023-03-17T01:31:00.700Z,1045.00
2023-03-17T01:35:00.701Z,1045.00
2023-03-17T01:39:00.708Z,1040.00
2023-03-17T01:43:00.784Z,1053.00
2023-03-17T01:47:00.756Z,1061.00
2023-03-17T01:51:00.784Z,1037.00
2023-03-17T01:55:00.774Z,1046.00
2023-03-17T01:59:00.843Z,1041.00
2023-03-17T02:03:00.870Z,1046.00
2023-03-17T02:07:00.906Z,1047.00
2023-03-17T02:11:00.982Z,1041.00
2023-03-17T02:15:01.016Z,1055.00
2023-03-17T02:19:01.103Z,1062.00
2023-03-17T02:23:01.168Z,1049.00
2023-03-17T02:27:01.213Z,1055.00
2023-03-17T02:31:01.312Z,1050.00
2023-03-17T02:35:01.281Z,1040.00
2023-03-17T02:39:01.402Z,1047.00
2023-03-17T02:43:01.451Z,1055.00
2023-03-17T02:47:01.539Z,1044.00
2023-03-17T02:51:01.494Z,1055.00
2023-03-17T02:55:01.529Z,1060.00
2023-03-17T02:59:01.640Z,1059.00
2023-03-17T03:03:01.648Z,1055.00
2023-03-17T03:07:01.721Z,1051.00
2023-03-17T03:11:01.840Z,1052.00
2023-03-17T03:15:02.313Z,1041.00
2023-03-17T03:19:01.893Z,1050.00
2023-03-17T03:23:01.948Z,1049.00
2023-03-17T03:27:02.070Z,1052.00
2023-03-17T03:31:02.173Z,1044.00
2023-03-17T03:35:02.204Z,1052.00
2023-03-17T03:39:02.346Z,1041.00
2023-03-17T03:43:10.186Z,1048.00
2023-03-17T03:47:03.372Z,1040.00
2023-03-17T03:51:02.315Z,1043.00
2023-03-17T03:55:02.264Z,1045.00
2023-03-17T03:59:02.232Z,1038.00
2023-03-17T04:03:02.244Z,1033.00
2023-03-17T04:07:02.316Z,1041.00
2023-03-17T04:11:02.400Z,1039.00
2023-03-17T04:15:02.543Z,1044.00
2023-03-17T04:19:02.740Z,1032.00
2023-03-17T04:23:02.740Z,1040.00
2023-03-17T04:27:05.489Z,1044.00
2023-03-17T04:31:02.840Z,1046.00
2023-03-17T04:35:02.846Z,1038.00
2023-03-17T04:39:02.765Z,1039.00
2023-03-17T04:43:03.622Z,1035.00
2023-03-17T04:47:02.694Z,1037.00
2023-03-17T04:51:02.637Z,1038.00
2023-03-17T04:55:02.599Z,1038.00
2023-03-17T04:59:02.562Z,1033.00
2023-03-17T05:03:02.871Z,1026.00
2023-03-17T05:07:02.557Z,891.00
2023-03-17T05:11:02.481Z,811.00
2023-03-17T05:15:02.401Z,737.00
2023-03-17T05:19:02.877Z,665.00
2023-03-17T05:23:02.329Z,639.00
2023-03-17T05:27:02.388Z,635.00
2023-03-17T05:31:02.463Z,629.00
2023-03-17T05:35:02.596Z,631.00
2023-03-17T05:39:02.683Z,650.00
2023-03-17T05:43:02.850Z,654.00
2023-03-17T05:47:03.012Z,666.00
2023-03-17T05:51:03.146Z,686.00
2023-03-17T05:55:03.240Z,711.00
2023-03-17T05:59:03.337Z,738.00
2023-03-17T06:03:03.427Z,754.00
2023-03-17T06:07:03.575Z,778.00
2023-03-17T06:11:03.574Z,793.00
2023-03-17T06:15:03.658Z,812.00
2023-03-17T06:19:03.790Z,830.00
2023-03-17T06:23:05.913Z,853.00
2023-03-17T06:27:03.999Z,854.00
2023-03-17T06:31:07.032Z,874.00
2023-03-17T06:35:03.999Z,691.00
2023-03-17T06:39:03.991Z,659.00
2023-03-17T06:43:03.885Z,635.00
2023-03-17T06:47:03.924Z,652.00
2023-03-17T06:51:03.848Z,683.00
2023-03-17T06:55:03.831Z,756.00
2023-03-17T06:59:03.788Z,809.00
2023-03-17T07:03:03.768Z,812.00
2023-03-17T07:07:03.761Z,815.00
2023-03-17T07:11:03.672Z,828.00
2023-03-17T07:15:03.601Z,796.00
2023-03-17T07:19:03.576Z,784.00
2023-03-17T07:23:03.553Z,784.00
2023-03-17T07:27:03.694Z,826.00
2023-03-17T07:31:03.673Z,773.00
2023-03-17T07:35:03.629Z,807.00
2023-03-17T07:39:03.554Z,705.00
2023-03-17T07:43:03.526Z,649.00
2023-03-17T07:47:03.490Z,655.00
2023-03-17T07:51:03.465Z,725.00
2023-03-17T07:55:03.405Z,812.00
2023-03-17T07:59:03.396Z,840.00
2023-03-17T08:03:10.380Z,873.00
2023-03-17T08:07:04.312Z,802.00
2023-03-17T08:11:03.333Z,795.00
2023-03-17T08:15:03.241Z,759.00
2023-03-17T08:19:03.164Z,730.00
2023-03-17T08:23:03.120Z,742.00
2023-03-17T08:27:03.056Z,757.00
2023-03-17T08:31:03.220Z,783.00
2023-03-17T08:35:03.150Z,776.00
2023-03-17T08:39:03.153Z,771.00
2023-03-17T08:43:03.067Z,738.00
2023-03-17T08:47:03.087Z,810.00
2023-03-17T08:51:03.017Z,862.00
2023-03-17T08:55:02.969Z,907.00
2023-03-17T08:59:02.923Z,911.00
2023-03-17T09:03:02.941Z,925.00
2023-03-17T09:07:04.349Z,941.00
2023-03-17T09:11:02.879Z,959.00
2023-03-17T09:15:02.781Z,988.00
2023-03-17T09:19:02.729Z,980.00
2023-03-17T09:23:02.730Z,1002.00
2023-03-17T09:27:02.671Z,997.00
2023-03-17T09:31:02.679Z,1004.00
2023-03-17T09:35:02.611Z,1008.00
2023-03-17T09:39:02.546Z,1014.00
2023-03-17T09:43:02.748Z,1027.00
2023-03-17T09:47:02.685Z,1032.00
2023-03-17T09:51:03.003Z,1036.00
2023-03-17T09:55:02.581Z,1048.00
2023-03-17T09:59:02.617Z,1052.00
2023-03-17T10:03:02.594Z,1058.00
2023-03-17T10:07:02.523Z,1062.00
2023-03-17T10:11:02.468Z,1065.00
2023-03-17T10:15:02.474Z,1063.00
2023-03-17T10:19:02.481Z,1063.00
2023-03-17T10:23:02.377Z,1064.00
2023-03-17T10:27:02.320Z,1039.00
2023-03-17T10:31:02.407Z,1044.00
2023-03-17T10:35:02.284Z,1057.00
2023-03-17T10:39:02.247Z,1061.00
2023-03-17T10:43:02.175Z,1022.00
2023-03-17T10:47:02.243Z,1037.00
2023-03-17T10:51:02.154Z,1031.00
2023-03-17T10:55:02.272Z,1032.00
2023-03-17T10:59:02.550Z,1019.00
2023-03-17T11:03:02.153Z,1016.00
2023-03-17T11:07:02.227Z,1013.00
2023-03-17T11:11:02.581Z,1015.00
2023-03-17T11:15:02.085Z,1006.00
2023-03-17T11:19:02.077Z,400.00
2023-03-17T11:23:02.135Z,400.00
2023-03-17T11:27:02.008Z,447.00
2023-03-17T11:31:01.910Z,660.00
2023-03-17T11:35:01.917Z,760.00
2023-03-17T11:39:01.894Z,614.00
2023-03-17T11:43:01.838Z,631.00
2023-03-17T11:47:01.900Z,774.00
2023-03-17T11:51:02.118Z,852.00
2023-03-17T11:55:02.134Z,480.00
2023-03-17T11:59:02.221Z,510.00
2023-03-17T12:03:02.430Z,418.00
2023-03-17T12:07:02.401Z,535.00
2023-03-17T12:11:02.522Z,521.00
2023-03-17T12:15:02.528Z,598.00
2023-03-17T12:19:02.628Z,900.00
2023-03-17T12:23:02.587Z,1074.00
2023-03-17T12:27:02.740Z,1504.00
2023-03-17T12:31:02.675Z,1748.00
2023-03-17T12:35:02.798Z,1736.00
2023-03-17T12:39:02.970Z,1673.00
2023-03-17T12:43:02.926Z,1522.00
2023-03-17T12:47:02.888Z,1488.00
2023-03-17T12:51:02.879Z,1463.00
2023-03-17T12:55:02.809Z,1466.00
2023-03-17T12:59:02.798Z,1494.00
2023-03-17T13:03:02.795Z,814.00
2023-03-17T13:07:02.741Z,950.00
2023-03-17T13:11:02.665Z,1518.00
2023-03-17T13:15:02.669Z,1763.00
2023-03-17T13:19:02.608Z,1869.00
2023-03-17T13:23:02.585Z,1980.00
2023-03-17T13:27:02.553Z,1738.00
2023-03-17T13:31:02.490Z,1543.00
2023-03-17T13:35:02.456Z,1623.00
2023-03-17T13:39:18.139Z,1503.00
2023-03-17T13:43:03.547Z,1511.00
2023-03-17T13:47:02.568Z,1480.00
2023-03-17T13:51:02.488Z,1476.00
2023-03-17T13:55:02.425Z,1546.00
2023-03-17T13:59:02.528Z,1618.00
2023-03-17T14:03:02.528Z,1552.00
2023-03-17T14:07:02.469Z,1477.00
2023-03-17T14:11:02.440Z,1270.00
2023-03-17T14:15:02.451Z,1521.00
2023-03-17T14:19:02.501Z,1584.00
2023-03-17T14:23:02.524Z,1620.00
2023-03-17T14:27:02.549Z,1734.00
2023-03-17T14:31:02.574Z,1550.00
2023-03-17T14:35:02.614Z,1647.00
2023-03-17T14:39:02.615Z,1608.00
2023-03-17T14:43:02.619Z,1762.00
2023-03-17T14:47:02.600Z,1720.00
2023-03-17T14:51:02.583Z,1879.00
2023-03-17T14:55:02.587Z,1990.00
2023-03-17T14:59:02.562Z,1918.00
2023-03-17T15:03:02.568Z,2100.00
2023-03-17T15:07:02.642Z,1997.00
2023-03-17T15:11:02.645Z,2003.00
2023-03-17T15:15:02.674Z,2015.00
2023-03-17T15:19:02.712Z,1968.00
2023-03-17T15:23:02.735Z,1973.00
2023-03-17T15:27:02.759Z,2074.00
2023-03-17T15:31:02.886Z,2262.00
2023-03-17T15:35:02.869Z,2415.00
2023-03-17T15:39:02.941Z,2399.00
2023-03-17T15:43:02.988Z,2555.00
2023-03-17T15:47:03.065Z,2461.00
2023-03-17T15:51:03.116Z,2583.00
2023-03-17T15:55:05.094Z,2609.00
2023-03-17T15:59:03.049Z,2693.00
2023-03-17T16:03:02.972Z,2743.00
2023-03-17T16:07:02.968Z,2751.00
2023-03-17T16:11:02.906Z,2763.00
2023-03-17T16:15:10.353Z,2825.00
2023-03-17T16:19:03.801Z,2846.00
2023-03-17T16:23:02.816Z,2866.00
2023-03-17T16:27:02.752Z,2869.00
2023-03-17T16:31:02.787Z,2880.00
2023-03-17T16:35:02.754Z,2878.00
2023-03-17T16:39:02.883Z,2847.00
2023-03-17T16:43:03.942Z,2827.00
2023-03-17T16:47:03.156Z,2830.00
2023-03-17T16:51:02.906Z,2848.00
2023-03-17T16:55:02.884Z,2889.00
2023-03-17T16:59:02.925Z,2848.00
2023-03-17T17:03:02.912Z,2858.00
2023-03-17T17:07:02.882Z,2834.00
2023-03-17T17:11:02.740Z,2868.00
2023-03-17T17:15:02.736Z,2865.00
2023-03-17T17:19:02.745Z,2846.00
2023-03-17T17:23:02.795Z,2812.00
2023-03-17T17:27:02.905Z,2834.00
2023-03-17T17:31:03.149Z,2828.00
2023-03-17T17:35:03.071Z,2875.00
2023-03-17T17:39:03.020Z,2874.00
2023-03-17T17:43:03.015Z,2837.00
2023-03-17T17:47:02.994Z,2833.00
2023-03-17T17:51:02.902Z,2825.00
2023-03-17T17:55:02.888Z,2833.00
2023-03-17T17:59:02.849Z,2822.00
2023-03-17T18:03:02.841Z,2806.00
2023-03-17T18:07:02.824Z,2819.00
2023-03-17T18:11:02.835Z,2801.00
2023-03-17T18:15:03.054Z,2769.00
2023-03-17T18:19:03.099Z,2754.00
2023-03-17T18:23:03.023Z,2759.00
2023-03-17T18:27:02.944Z,2735.00
2023-03-17T18:31:02.918Z,2756.00
2023-03-17T18:35:02.888Z,2674.00
2023-03-17T18:39:02.831Z,2810.00
2023-03-17T18:43:02.810Z,2563.00
2023-03-17T18:47:02.781Z,2315.00
2023-03-17T18:51:02.746Z,2219.00
2023-03-17T18:55:02.715Z,1980.00
2023-03-17T18:59:02.692Z,1912.00
2023-03-17T19:03:02.883Z,1802.00
2023-03-17T19:07:02.962Z,1693.00
2023-03-17T19:11:03.297Z,1608.00
2023-03-17T19:15:03.194Z,2021.00
2023-03-17T19:19:03.172Z,2026.00
2023-03-17T19:23:03.176Z,2039.00
2023-03-17T19:27:03.178Z,2121.00
2023-03-17T19:31:03.222Z,2209.00
2023-03-17T19:35:03.160Z,2279.00
2023-03-17T19:39:03.197Z,2358.00
2023-03-17T19:43:03.193Z,2423.00
2023-03-17T19:47:03.114Z,2498.00
2023-03-17T19:51:03.086Z,2527.00
2023-03-17T19:55:03.126Z,2528.00
2023-03-17T19:59:03.093Z,2604.00
2023-03-17T20:03:03.083Z,2581.00
2023-03-17T20:07:03.056Z,2643.00
2023-03-17T20:11:03.019Z,2622.00
2023-03-17T20:15:03.035Z,2682.00
2023-03-17T20:19:03.043Z,2677.00
2023-03-17T20:23:03.000Z,2688.00
2023-03-17T20:27:03.017Z,2718.00
2023-03-17T20:31:03.188Z,2737.00
2023-03-17T20:35:03.008Z,2781.00
2023-03-17T20:39:02.969Z,2810.00
2023-03-17T20:43:02.964Z,2807.00
2023-03-17T20:47:02.947Z,2819.00
2023-03-17T20:51:02.972Z,2829.00
2023-03-17T20:55:02.989Z,2833.00
2023-03-17T20:59:03.059Z,2845.00
2023-03-17T21:03:03.086Z,2841.00
2023-03-17T21:07:03.098Z,2844.00
2023-03-17T21:11:03.123Z,2836.00
2023-03-17T21:15:03.209Z,2832.00
2023-03-17T21:19:03.265Z,2834.00
2023-03-17T21:23:03.383Z,2850.00
2023-03-17T21:27:03.432Z,2853.00
2023-03-17T21:31:03.500Z,2832.00
2023-03-17T21:35:03.592Z,2824.00
2023-03-17T21:39:03.602Z,2819.00
2023-03-17T21:43:03.605Z,2821.00
2023-03-17T21:47:03.750Z,2803.00
2023-03-17T21:51:03.789Z,2799.00
2023-03-17T21:55:03.916Z,2800.00
2023-03-17T21:59:04.022Z,2798.00
2023-03-17T22:03:04.436Z,2779.00
2023-03-17T22:07:04.262Z,2782.00
2023-03-17T22:11:04.360Z,2771.00
2023-03-17T22:15:04.517Z,2772.00
2023-03-17T22:19:04.584Z,2753.00
2023-03-17T22:23:04.632Z,2740.00
2023-03-17T22:27:04.679Z,2758.00
2023-03-17T22:31:04.753Z,2743.00
2023-03-17T22:35:04.864Z,2718.00
2023-03-17T22:39:04.970Z,2720.00
2023-03-17T22:43:05.117Z,2709.00
2023-03-17T22:47:05.123Z,2703.00
2023-03-17T22:51:05.179Z,2695.00
2023-03-17T22:55:05.267Z,2699.00
2023-03-17T22:59:05.304Z,2676.00
2023-03-17T23:03:05.337Z,2667.00
2023-03-17T23:07:05.466Z,2667.00
2023-03-17T23:11:05.518Z,2669.00
2023-03-17T23:15:05.707Z,2645.00
2023-03-17T23:19:05.753Z,2643.00
2023-03-17T23:23:05.878Z,2656.00
2023-03-17T23:27:05.980Z,2617.00
2023-03-17T23:31:06.198Z,2632.00
2023-03-17T23:35:06.239Z,2598.00
2023-03-17T23:39:06.391Z,2603.00
2023-03-17T23:43:06.547Z,2584.00
2023-03-17T23:47:06.730Z,2591.00
2023-03-17T23:51:06.751Z,2576.00
2023-03-17T23:55:07.020Z,2582.00
2023-03-17T23:59:07.073Z,2553.00
